Time;durP1;ratioP1;P1;durP2;ratioP2;P2;SDS_P1;SDS_P2;PMS_P1;PMS_P2;Temp;Humidity;BMP_temperature;BMP_pressure;BME280_temperature;BME280_humidity;BME280_pressure;Samples;Min_cycle;Max_cycle;Signal;HPM_P1;HPM_P2
2022/09/23 00:01:07;;;;;;;4.00;1.40;;;;;;;12.07;100.00;100933.50;4941855;29;20107;-88
2022/09/23 00:03:37;;;;;;;3.33;1.30;;;;;;;11.69;100.00;100907.88;4934524;29;20059;-87
2022/09/23 00:06:09;;;;;;;4.35;1.23;;;;;;;11.72;100.00;100912.13;4944352;28;20610;-88
2022/09/23 00:08:37;;;;;;;6.68;1.30;;;;;;;11.82;100.00;100944.09;4934549;29;20054;-88
2022/09/23 00:11:11;;;;;;;3.60;1.23;;;;;;;11.66;100.00;100930.75;4936065;29;20574;-89
2022/09/23 00:13:40;;;;;;;4.57;1.40;;;;;;;11.48;100.00;100909.56;4931522;29;20055;-88
2022/09/23 00:16:10;;;;;;;5.93;1.70;;;;;;;11.71;100.00;100947.16;4934661;29;20562;-88
2022/09/23 00:18:37;;;;;;;6.05;1.60;;;;;;;11.51;100.00;100942.66;4935558;29;20131;-88
2022/09/23 00:21:09;;;;;;;5.28;1.58;;;;;;;11.35;100.00;100947.63;4934854;29;20103;-88
2022/09/23 00:23:37;;;;;;;4.80;1.65;;;;;;;11.52;100.00;100939.13;4934322;29;20114;-88
2022/09/23 00:26:06;;;;;;;4.10;1.50;;;;;;;11.62;100.00;100930.00;4935973;29;20066;-87
2022/09/23 00:28:33;;;;;;;5.32;1.40;;;;;;;11.67;100.00;100942.91;4934722;29;20181;-88
2022/09/23 00:31:05;;;;;;;6.28;1.40;;;;;;;11.68;100.00;100948.09;4921444;29;20075;-88
2022/09/23 00:33:32;;;;;;;3.67;1.50;;;;;;;11.71;100.00;100940.13;4934834;29;20067;-88
2022/09/23 00:36:00;;;;;;;4.28;1.30;;;;;;;11.49;100.00;100947.09;4934822;29;20052;-88
2022/09/23 00:38:27;;;;;;;3.97;1.40;;;;;;;11.43;100.00;100936.88;4934148;29;20047;-89
2022/09/23 00:40:55;;;;;;;6.43;1.50;;;;;;;11.25;100.00;100920.91;4934282;29;20103;-88
2022/09/23 00:43:37;;;;;;;5.43;1.50;;;;;;;11.28;100.00;100948.75;4935813;29;20107;-87
2022/09/23 00:46:06;;;;;;;4.10;1.38;;;;;;;11.09;100.00;100946.84;4932550;29;20047;-87
2022/09/23 00:48:35;;;;;;;4.22;1.40;;;;;;;11.09;100.00;100935.50;4932044;29;20718;-88
2022/09/23 00:51:06;;;;;;;2.80;1.30;;;;;;;11.30;100.00;100944.34;4935031;29;20051;-87
2022/09/23 00:53:33;;;;;;;6.88;1.50;;;;;;;11.39;100.00;100960.56;4933521;29;20054;-87
2022/09/23 00:56:03;;;;;;;1.88;1.10;;;;;;;11.51;100.00;100956.66;4933465;29;20083;-88
2022/09/23 00:58:32;;;;;;;4.47;1.83;;;;;;;11.43;100.00;100958.69;4927578;29;20047;-87
2022/09/23 01:01:01;;;;;;;4.18;1.40;;;;;;;11.46;100.00;100958.59;4931285;29;20066;-87
2022/09/23 01:03:29;;;;;;;5.85;1.40;;;;;;;11.30;100.00;100950.44;4934804;29;20048;-87
2022/09/23 01:05:56;;;;;;;4.63;1.23;;;;;;;11.14;100.00;100938.81;4932455;29;20051;-88
2022/09/23 01:08:25;;;;;;;4.15;1.42;;;;;;;11.23;100.00;100948.94;4934065;29;20047;-88
2022/09/23 01:11:04;;;;;;;5.57;1.60;;;;;;;11.34;100.00;100961.66;4933492;29;20114;-88
2022/09/23 01:13:51;;;;;;;3.35;1.35;;;;;;;11.19;100.00;100966.56;4929183;29;20047;-88
2022/09/23 01:16:26;;;;;;;4.57;1.50;;;;;;;10.89;100.00;100952.78;4932922;29;20454;-88
2022/09/23 01:19:15;;;;;;;4.00;1.20;;;;;;;11.07;100.00;100966.16;4947219;29;20062;-87
2022/09/23 01:22:03;;;;;;;3.30;1.23;;;;;;;11.14;100.00;100971.09;4927556;29;20059;-86
2022/09/23 01:25:07;;;;;;;5.45;1.60;;;;;;;11.20;100.00;100980.50;4947570;29;20066;-87
2022/09/23 01:27:53;;;;;;;4.07;1.30;;;;;;;11.26;100.00;100976.81;4933350;29;20047;-87
2022/09/23 01:30:43;;;;;;;5.35;1.50;;;;;;;11.13;100.00;100979.03;4933682;29;20111;-87
2022/09/23 01:33:32;;;;;;;6.10;1.85;;;;;;;11.22;100.00;100981.31;4934182;29;20074;-87
2022/09/23 01:36:22;;;;;;;5.00;1.38;;;;;;;11.10;100.00;100966.03;4933257;29;20827;-85
2022/09/23 01:39:13;;;;;;;3.33;1.27;;;;;;;11.24;100.00;100979.47;4931226;29;20103;-87
2022/09/23 01:42:04;;;;;;;4.00;1.38;;;;;;;11.08;100.00;100973.94;4934712;29;20059;-87
2022/09/23 01:44:35;;;;;;;4.80;1.33;;;;;;;10.86;100.00;100976.47;4934997;29;20051;-87
2022/09/23 01:47:09;;;;;;;5.15;1.45;;;;;;;10.68;100.00;100957.03;4934933;29;20060;-87
2022/09/23 01:53:13;;;;;;;3.92;1.30;;;;;;;10.90;100.00;100975.44;4923143;29;20098;-87
2022/09/23 01:55:47;;;;;;;4.00;1.25;;;;;;;10.88;100.00;100968.56;4934183;29;20051;-87
2022/09/23 01:58:20;;;;;;;4.95;1.65;;;;;;;10.89;100.00;100965.03;4949363;29;20844;-87
2022/09/23 02:00:54;;;;;;;;;;;;;;;11.32;100.00;100976.59;4935169;29;20458;-87
2022/09/23 02:03:26;;;;;;;5.65;1.65;;;;;;;11.26;100.00;100969.81;4933417;29;19923;-87
2022/09/23 02:06:08;;;;;;;4.43;1.20;;;;;;;11.21;100.00;100961.25;4933265;29;20059;-87
2022/09/23 02:09:06;;;;;;;4.38;1.33;;;;;;;11.33;100.00;100965.19;4933219;29;20529;-87
2022/09/23 02:11:35;;;;;;;4.35;1.38;;;;;;;11.28;100.00;100954.00;4923238;29;20059;-88
2022/09/23 02:14:09;;;;;;;1.90;1.10;;;;;;;11.53;100.00;100969.69;4933791;29;20059;-87
2022/09/23 02:16:42;;;;;;;6.85;1.50;;;;;;;11.40;100.00;100957.06;4933678;29;20553;-87
2022/09/23 02:19:25;;;;;;;5.43;1.55;;;;;;;11.52;100.00;100968.81;4933700;29;20486;-87
2022/09/23 02:22:06;;;;;;;4.20;1.50;;;;;;;11.39;100.00;100968.44;4934701;29;20115;-87
2022/09/23 02:24:37;;;;;;;3.63;1.30;;;;;;;11.23;100.00;100962.06;4934681;29;20048;-87
2022/09/23 02:27:22;;;;;;;4.60;1.48;;;;;;;11.28;100.00;100974.97;4933287;29;20056;-87
2022/09/23 02:29:52;;;;;;;2.22;1.20;;;;;;;11.15;100.00;100943.97;4933898;29;20131;-86
2022/09/23 02:32:30;;;;;;;4.22;1.20;;;;;;;11.23;100.00;100953.34;4925267;29;20106;-86
2022/09/23 02:35:14;;;;;;;5.88;1.70;;;;;;;11.46;100.00;100961.19;4936289;29;20443;-86
2022/09/23 02:37:47;;;;;;;;;;;;;;;11.65;100.00;100966.63;4932964;29;20060;-87
2022/09/23 02:40:23;;;;;;;3.90;1.40;;;;;;;11.68;100.00;100965.63;4926085;29;19930;-86
2022/09/23 02:43:18;;;;;;;5.15;1.13;;;;;;;11.70;100.00;100955.91;4933142;29;20566;-87
2022/09/23 02:45:46;;;;;;;5.60;1.20;;;;;;;11.50;100.00;100906.88;4932957;29;20138;-87
2022/09/23 02:48:19;;;;;;;4.40;1.30;;;;;;;11.58;100.00;100928.44;4946127;28;20059;-86
2022/09/23 02:50:46;;;;;;;4.25;1.25;;;;;;;11.44;100.00;100923.72;4938024;29;20482;-87
2022/09/23 02:53:17;;;;;;;5.05;1.38;;;;;;;11.66;100.00;100960.44;4937601;29;20063;-87
2022/09/23 02:55:43;;;;;;;3.67;1.25;;;;;;;11.51;100.00;100946.16;4936963;29;20465;-86
2022/09/23 02:58:12;;;;;;;3.58;1.10;;;;;;;11.58;100.00;100949.41;4935574;29;20055;-87
2022/09/23 03:00:45;;;;;;;4.85;1.15;;;;;;;11.59;100.00;100958.97;4934988;29;20060;-86
2022/09/23 03:03:33;;;;;;;3.03;1.20;;;;;;;11.66;100.00;100955.19;4937706;29;20063;-87
2022/09/23 03:06:07;;;;;;;3.45;1.20;;;;;;;11.65;100.00;100945.63;4922617;29;20056;-87
2022/09/23 03:08:49;;;;;;;5.65;1.33;;;;;;;11.72;100.00;100944.47;4931607;29;20068;-86
2022/09/23 03:11:17;;;;;;;4.38;1.70;;;;;;;11.81;100.00;100934.50;4930711;29;20099;-87
2022/09/23 03:13:59;;;;;;;3.08;1.08;;;;;;;11.99;100.00;100952.19;4935700;29;20047;-87
2022/09/23 03:16:52;;;;;;;7.45;1.38;;;;;;;11.77;100.00;100912.78;4936138;29;20138;-87
2022/09/23 03:19:25;;;;;;;4.28;1.38;;;;;;;12.01;100.00;100958.22;4933270;29;20097;-88
2022/09/23 03:22:06;;;;;;;;;;;;;;;12.19;100.00;100961.03;4931821;29;21137;-88
2022/09/23 03:24:35;;;;;;;3.53;1.20;;;;;;;11.99;100.00;100954.81;4937266;29;19923;-88
2022/09/23 03:27:12;;;;;;;6.40;1.20;;;;;;;11.92;100.00;100962.06;4935949;29;20645;-88
2022/09/23 03:29:46;;;;;;;2.83;1.27;;;;;;;11.99;100.00;100956.56;4952196;29;20051;-88
2022/09/23 03:32:16;;;;;;;4.82;1.30;;;;;;;11.99;100.00;100962.69;4938430;29;20111;-88
2022/09/23 03:34:47;;;;;;;5.80;1.20;;;;;;;11.89;100.00;100954.28;4934965;29;20577;-88
2022/09/23 03:37:25;;;;;;;4.22;1.30;;;;;;;11.70;100.00;100938.41;4935568;29;20052;-88
2022/09/23 03:40:20;;;;;;;3.80;1.17;;;;;;;11.82;100.00;100957.22;4942964;29;20123;-88
2022/09/23 03:42:50;;;;;;;3.58;1.10;;;;;;;11.34;100.00;100906.59;4932673;29;20052;-88
2022/09/23 03:45:22;;;;;;;4.05;1.23;;;;;;;11.25;100.00;100894.72;4951719;28;20549;-88
2022/09/23 03:47:49;;;;;;;3.15;1.20;;;;;;;11.21;100.00;100914.09;4935583;29;20431;-88
2022/09/23 03:50:20;;;;;;;6.10;1.45;;;;;;;11.04;100.00;100938.28;4935879;29;20086;-88
2022/09/23 03:52:48;;;;;;;3.00;1.25;;;;;;;11.01;100.00;100938.38;4933385;29;20467;-88
2022/09/23 03:55:16;;;;;;;5.07;1.10;;;;;;;11.08;100.00;100954.75;4936347;29;20111;-88
2022/09/23 03:57:44;;;;;;;3.33;1.20;;;;;;;11.01;100.00;100923.53;4934926;29;20064;-87
2022/09/23 04:00:11;;;;;;;3.17;1.20;;;;;;;11.10;100.00;100956.41;4932457;29;20052;-87
2022/09/23 04:02:39;;;;;;;4.22;1.08;;;;;;;10.80;100.00;100946.13;4951369;28;20060;-88
2022/09/23 04:05:07;;;;;;;3.58;1.20;;;;;;;10.98;100.00;100952.47;4935634;29;20106;-88
2022/09/23 04:07:34;;;;;;;4.53;1.20;;;;;;;10.93;100.00;100936.06;4951138;29;20130;-87
2022/09/23 04:10:01;;;;;;;5.93;1.25;;;;;;;11.00;100.00;100934.91;4935183;29;20048;-87
2022/09/23 04:12:27;;;;;;;5.45;1.27;;;;;;;11.06;100.00;100939.06;4934759;29;20079;-87
2022/09/23 04:14:54;;;;;;;3.63;1.45;;;;;;;11.07;100.00;100917.22;4934985;29;20063;-86
2022/09/23 04:17:21;;;;;;;3.95;1.30;;;;;;;11.04;100.00;100924.34;4934990;29;20043;-86
2022/09/23 04:19:47;;;;;;;5.20;1.10;;;;;;;11.12;100.00;100920.53;4935997;29;20119;-86
2022/09/23 04:22:14;;;;;;;3.38;1.20;;;;;;;11.24;100.00;100934.06;4935213;29;20088;-87
2022/09/23 04:24:41;;;;;;;4.90;1.10;;;;;;;11.27;100.00;100916.47;4935019;29;20553;-87
2022/09/23 04:27:08;;;;;;;4.38;1.70;;;;;;;11.14;100.00;100931.81;4929028;29;20055;-87
2022/09/23 04:29:35;;;;;;;5.55;1.35;;;;;;;11.36;100.00;100928.38;4936342;29;20479;-87
2022/09/23 04:32:01;;;;;;;6.45;1.23;;;;;;;11.49;100.00;100913.91;4947880;29;20051;-87
2022/09/23 04:34:28;;;;;;;5.18;1.17;;;;;;;11.65;100.00;100927.28;4935121;29;20056;-87
2022/09/23 04:36:54;;;;;;;5.65;1.13;;;;;;;11.59;100.00;100920.47;4934658;29;20078;-87
2022/09/23 04:39:21;;;;;;;3.70;1.17;;;;;;;11.47;100.00;100934.06;4934199;29;20099;-87
2022/09/23 04:41:48;;;;;;;5.50;1.17;;;;;;;11.65;100.00;100950.88;4934077;29;20443;-86
2022/09/23 04:44:15;;;;;;;2.92;1.15;;;;;;;11.46;100.00;100921.03;4934408;29;20111;-87
2022/09/23 04:46:45;;;;;;;2.22;0.98;;;;;;;11.55;100.00;100945.13;4933819;29;20052;-87
2022/09/23 04:49:13;;;;;;;4.22;1.20;;;;;;;11.32;100.00;100932.88;4935424;29;20126;-87
2022/09/23 04:51:42;;;;;;;5.22;1.42;;;;;;;11.37;100.00;100949.28;4938060;29;20391;-88
2022/09/23 04:54:11;;;;;;;3.67;1.10;;;;;;;10.80;100.00;100880.63;4933371;29;20052;-86
2022/09/23 04:56:38;;;;;;;4.05;1.40;;;;;;;11.13;100.00;100950.19;4933384;29;20051;-87
2022/09/23 04:59:06;;;;;;;3.38;1.27;;;;;;;10.94;100.00;100950.88;4935161;29;20488;-87
2022/09/23 05:01:35;;;;;;;2.97;1.20;;;;;;;10.68;100.00;100949.16;4935159;29;20083;-88
2022/09/23 05:04:06;;;;;;;3.78;1.30;;;;;;;10.50;100.00;100939.31;4928097;29;20123;-88
2022/09/23 05:06:33;;;;;;;2.63;1.08;;;;;;;10.44;100.00;100961.31;4934553;29;20043;-88
2022/09/23 05:09:03;;;;;;;5.65;1.20;;;;;;;10.35;100.00;100949.38;4933653;29;20102;-87
2022/09/23 05:11:30;;;;;;;3.88;1.20;;;;;;;10.25;100.00;100942.72;4934629;29;20052;-87
2022/09/23 05:13:57;;;;;;;4.18;1.20;;;;;;;10.39;100.00;100964.09;4933916;29;20047;-87
2022/09/23 05:16:24;;;;;;;4.82;1.10;;;;;;;10.09;100.00;100937.13;4932952;29;20056;-87
2022/09/23 05:18:52;;;;;;;5.40;1.23;;;;;;;9.73;100.00;100881.63;4936941;29;20052;-87
2022/09/23 05:21:21;;;;;;;2.22;0.90;;;;;;;10.23;100.00;100958.47;4934802;29;20054;-87
2022/09/23 05:23:53;;;;;;;3.80;1.10;;;;;;;10.23;100.00;100968.06;4937065;29;20609;-87
2022/09/23 05:26:26;;;;;;;3.80;1.05;;;;;;;10.22;100.00;100964.59;4932886;29;20071;-87
2022/09/23 05:28:54;;;;;;;2.97;1.20;;;;;;;10.20;100.00;100962.97;4932841;29;20139;-86
2022/09/23 05:31:23;;;;;;;3.60;1.10;;;;;;;10.23;100.00;100962.84;4940006;29;20055;-87
2022/09/23 05:34:01;;;;;;;2.30;1.10;;;;;;;10.13;100.00;100958.81;4935994;29;20406;-87
2022/09/23 05:36:30;;;;;;;3.78;1.13;;;;;;;10.07;100.00;100955.50;4933594;29;20052;-87
2022/09/23 05:39:03;;;;;;;6.13;1.30;;;;;;;10.12;100.00;100957.09;4933239;29;20051;-86
2022/09/23 05:41:30;;;;;;;4.55;1.20;;;;;;;10.05;100.00;100952.06;4931057;29;20047;-87
2022/09/23 05:43:58;;;;;;;5.40;1.55;;;;;;;9.82;100.00;100926.63;4939550;29;20051;-86
2022/09/23 05:46:27;;;;;;;3.80;1.30;;;;;;;9.99;100.00;100978.44;4933255;29;20383;-88
2022/09/23 05:48:56;;;;;;;3.97;1.30;;;;;;;9.73;100.00;100965.31;4933367;29;20055;-87
2022/09/23 05:51:34;;;;;;;5.47;1.38;;;;;;;9.61;100.00;100959.53;4938778;29;20110;-86
2022/09/23 05:54:02;;;;;;;8.57;2.75;;;;;;;9.77;100.00;100983.44;4932849;29;20062;-87
2022/09/23 05:56:31;;;;;;;4.15;1.20;;;;;;;9.63;100.00;100972.53;4949514;28;20056;-87
2022/09/23 05:59:00;;;;;;;3.92;1.23;;;;;;;9.65;100.00;100989.91;4939299;29;20102;-87
2022/09/23 06:01:32;;;;;;;4.63;1.13;;;;;;;9.57;100.00;100978.81;4933644;29;20497;-87
2022/09/23 06:04:02;;;;;;;4.72;1.45;;;;;;;9.65;100.00;100989.03;4935071;29;20056;-86
2022/09/23 06:06:31;;;;;;;5.32;1.15;;;;;;;9.64;100.00;100989.97;4929342;29;20044;-87
2022/09/23 06:08:59;;;;;;;7.15;1.40;;;;;;;9.71;100.00;100991.50;4944483;29;20107;-88
2022/09/23 06:11:29;;;;;;;2.70;1.17;;;;;;;9.72;100.00;100974.91;4944027;29;20059;-88
2022/09/23 06:14:01;;;;;;;3.35;1.10;;;;;;;9.81;100.00;100992.06;4928693;29;20048;-88
2022/09/23 06:16:31;;;;;;;4.35;1.58;;;;;;;9.96;100.00;101001.22;4925955;29;20048;-87
2022/09/23 06:19:04;;;;;;;6.25;1.50;;;;;;;9.97;100.00;100990.69;4929850;29;20483;-88
2022/09/23 06:21:35;;;;;;;5.45;1.25;;;;;;;9.78;100.00;100992.16;4928070;29;20130;-88
2022/09/23 06:24:02;;;;;;;6.35;1.60;;;;;;;9.88;100.00;100970.91;4935217;29;20054;-88
2022/09/23 06:26:32;;;;;;;2.17;1.10;;;;;;;10.11;100.00;100986.78;4936589;29;20444;-88
2022/09/23 06:29:01;;;;;;;4.60;1.30;;;;;;;10.07;100.00;100992.13;4932999;29;20047;-87
2022/09/23 06:31:31;;;;;;;4.68;1.20;;;;;;;10.01;100.00;101002.78;4935295;29;20071;-87
2022/09/23 06:33:58;;;;;;;4.05;1.30;;;;;;;10.04;100.00;100992.22;4933834;29;20395;-86
2022/09/23 06:36:35;;;;;;;4.15;1.30;;;;;;;10.25;100.00;100993.31;4933438;29;20048;-86
2022/09/23 06:39:09;;;;;;;3.47;1.30;;;;;;;10.36;100.00;100990.38;4934575;29;20044;-85
2022/09/23 06:41:39;;;;;;;3.15;1.30;;;;;;;10.24;100.00;100980.28;4937888;29;20067;-85
2022/09/23 06:44:06;;;;;;;4.88;1.40;;;;;;;10.07;100.00;100949.41;4946927;29;20051;-86
2022/09/23 06:46:34;;;;;;;5.10;1.20;;;;;;;10.03;100.00;100948.63;4950311;29;20083;-86
2022/09/23 06:49:02;;;;;;;5.03;1.15;;;;;;;10.45;100.00;101012.78;4938415;29;20075;-86
2022/09/23 06:51:29;;;;;;;6.95;1.52;;;;;;;9.99;100.00;100926.09;4942689;29;20051;-86
2022/09/23 06:53:56;;;;;;;8.02;1.80;;;;;;;10.26;100.00;100967.97;4941608;29;20758;-85
2022/09/23 06:56:23;;;;;;;4.38;1.35;;;;;;;10.57;100.00;101014.13;4943090;29;20106;-87
2022/09/23 06:58:51;;;;;;;4.78;1.38;;;;;;;10.66;100.00;101005.97;4951728;29;20048;-86
2022/09/23 07:01:19;;;;;;;3.85;1.20;;;;;;;10.23;100.00;100937.56;4952253;28;20133;-85
2022/09/23 07:03:47;;;;;;;3.55;1.10;;;;;;;11.44;100.00;100977.88;4943003;29;20664;-86
2022/09/23 07:06:14;;;;;;;3.58;1.10;;;;;;;12.37;100.00;100962.91;4943666;29;20052;-87
2022/09/23 07:08:43;;;;;;;5.28;1.67;;;;;;;12.97;100.00;100954.25;4941546;29;20052;-87
2022/09/23 07:11:11;;;;;;;4.00;1.00;;;;;;;13.56;100.00;101013.81;4943742;29;20063;-87
2022/09/23 07:13:40;;;;;;;5.70;1.17;;;;;;;13.76;100.00;100996.28;4961594;29;20055;-87
2022/09/23 07:16:09;;;;;;;7.68;1.55;;;;;;;13.77;100.00;100992.72;4947235;29;20376;-87
2022/09/23 07:18:38;;;;;;;5.60;1.52;;;;;;;13.96;100.00;100997.97;4946769;29;20050;-87
2022/09/23 07:21:17;;;;;;;4.38;1.10;;;;;;;14.33;100.00;101004.09;4945320;29;20067;-88
2022/09/23 07:23:51;;;;;;;2.80;0.82;;;;;;;14.55;100.00;100986.28;4947272;29;20094;-87
2022/09/23 07:26:19;;;;;;;3.45;1.13;;;;;;;14.77;100.00;100998.44;4947101;29;20055;-88
2022/09/23 07:28:51;;;;;;;3.72;1.10;;;;;;;14.58;100.00;100996.72;4947077;29;20514;-87
2022/09/23 07:31:18;;;;;;;4.15;1.20;;;;;;;14.96;100.00;100995.69;4945598;29;20051;-87
2022/09/23 07:34:03;;;;;;;4.75;1.10;;;;;;;15.17;100.00;101022.72;4938513;29;20051;-87
2022/09/23 07:36:36;;;;;;;3.95;1.00;;;;;;;15.40;100.00;101025.94;4941371;29;20052;-87
2022/09/23 07:39:03;;;;;;;4.82;1.00;;;;;;;15.38;100.00;100968.81;4941345;29;20055;-87
2022/09/23 07:41:32;;;;;;;3.25;1.00;;;;;;;15.54;100.00;101028.69;4947657;29;20055;-88
2022/09/23 07:43:59;;;;;;;4.75;1.00;;;;;;;15.33;100.00;100983.19;4949239;29;20055;-87
2022/09/23 07:46:29;;;;;;;3.92;1.13;;;;;;;15.85;100.00;101027.91;4947825;29;20048;-88
2022/09/23 07:48:56;;;;;;;2.15;0.80;;;;;;;15.68;100.00;101022.66;4947772;29;20111;-87
2022/09/23 07:51:35;;;;;;;3.40;0.80;;;;;;;15.83;100.00;101015.72;4942574;29;20111;-87
2022/09/23 07:54:09;;;;;;;5.78;0.80;;;;;;;16.30;100.00;101023.63;4946619;29;20052;-88
2022/09/23 07:56:36;;;;;;;2.08;0.70;;;;;;;16.42;100.00;100997.44;4943363;29;20048;-88
2022/09/23 07:59:08;;;;;;;6.10;1.10;;;;;;;16.68;100.00;101022.38;4941406;29;20047;-88
2022/09/23 08:01:42;;;;;;;3.75;0.90;;;;;;;16.85;100.00;101016.09;4947645;29;20056;-92
2022/09/23 08:04:28;;;;;;;6.20;1.33;;;;;;;17.17;100.00;101000.06;4935984;29;20046;-91
2022/09/23 08:07:33;;;;;;;2.97;0.90;;;;;;;17.56;100.00;100977.38;4950830;29;20095;-90
2022/09/23 08:10:17;;;;;;;2.53;0.73;;;;;;;17.60;100.00;101005.34;4938736;29;20047;-92
2022/09/23 08:13:00;;;;;;;5.63;0.88;;;;;;;17.80;100.00;101012.06;4947313;29;20094;-90
2022/09/23 08:15:29;;;;;;;3.92;0.90;;;;;;;18.34;100.00;101032.44;4950170;29;20068;-93
2022/09/23 08:18:10;;;;;;;6.43;1.10;;;;;;;17.78;100.00;100985.66;4954019;29;20055;-92
2022/09/23 08:20:52;;;;;;;4.38;1.10;;;;;;;17.86;100.00;100981.69;4952632;29;20051;-93
2022/09/23 08:23:32;;;;;;;4.20;1.00;;;;;;;17.78;100.00;101022.75;4950255;29;20028;-93
2022/09/23 08:26:13;;;;;;;6.85;1.00;;;;;;;17.90;100.00;101010.56;4932478;29;20111;-90
2022/09/23 08:28:47;;;;;;;3.40;0.80;;;;;;;18.24;100.00;101023.41;4948988;29;20051;-91
2022/09/23 08:31:27;;;;;;;2.88;0.82;;;;;;;18.66;98.31;101022.38;4948444;29;20063;-92
2022/09/23 08:34:09;;;;;;;4.53;1.00;;;;;;;18.42;92.11;101027.50;4947073;29;20046;-91
2022/09/23 08:36:51;;;;;;;4.07;0.90;;;;;;;18.33;100.00;101028.13;4957735;29;20063;-92
2022/09/23 08:39:31;;;;;;;5.45;0.90;;;;;;;17.82;100.00;101034.00;4938694;29;20057;-91
2022/09/23 08:42:27;;;;;;;3.08;1.00;;;;;;;17.64;100.00;101028.06;4949743;29;20062;-91
2022/09/23 08:45:13;;;;;;;2.67;0.90;;;;;;;17.15;100.00;101012.56;4932689;29;20051;-91
2022/09/23 08:47:50;;;;;;;3.88;1.00;;;;;;;17.07;100.00;101028.91;4947385;29;20055;-91
2022/09/23 08:50:20;;;;;;;3.72;0.90;;;;;;;17.34;100.00;100991.97;4946766;29;20054;-90
2022/09/23 08:52:55;;;;;;;3.22;0.80;;;;;;;16.97;100.00;101004.78;4947708;29;20043;-91
2022/09/23 08:55:36;;;;;;;5.13;1.17;;;;;;;17.06;100.00;100998.94;4948997;29;20056;-91
2022/09/23 08:58:34;;;;;;;4.60;0.80;;;;;;;17.35;100.00;101035.13;4941354;29;20066;-91
2022/09/23 09:01:13;;;;;;;4.10;0.90;;;;;;;16.99;100.00;101042.56;4946781;29;20039;-92
2022/09/23 09:03:49;;;;;;;4.10;0.90;;;;;;;17.37;100.00;101044.72;4944953;29;20063;-91
2022/09/23 09:06:46;;;;;;;2.70;0.70;;;;;;;17.13;100.00;101003.88;4965410;28;20055;-92
2022/09/23 09:09:29;;;;;;;2.85;0.82;;;;;;;17.42;100.00;101047.06;4963476;29;20031;-92
2022/09/23 09:12:16;;;;;;;4.88;1.08;;;;;;;16.88;100.00;101006.19;4959050;29;20043;-93
2022/09/23 09:15:11;;;;;;;2.97;1.00;;;;;;;16.96;100.00;101008.34;4949566;29;20035;-93
2022/09/23 09:18:01;;;;;;;4.32;1.08;;;;;;;16.87;100.00;100991.28;4939040;29;20059;-92
2022/09/23 09:20:38;;;;;;;2.75;0.90;;;;;;;16.86;100.00;101047.75;4947348;29;20111;-94
2022/09/23 09:23:26;;;;;;;2.92;0.70;;;;;;;17.19;100.00;101046.69;4954045;29;20105;-94
2022/09/23 09:26:20;;;;;;;2.45;0.75;;;;;;;16.86;100.00;101018.66;4953976;29;20059;-94
2022/09/23 09:29:26;;;;;;;6.25;1.10;;;;;;;17.17;100.00;101048.53;4941518;29;20054;-93
2022/09/23 09:32:50;;;;;;;3.17;0.85;;;;;;;16.88;100.00;101027.34;4953943;29;20075;-94
2022/09/23 09:35:53;;;;;;;3.28;0.98;;;;;;;16.91;100.00;101044.84;4877722;29;20040;-93
2022/09/23 09:38:37;;;;;;;2.03;0.80;;;;;;;17.07;100.00;101045.63;4877126;29;20465;-95
2022/09/23 09:41:23;;;;;;;4.00;1.35;;;;;;;16.84;100.00;101022.34;4933778;29;20044;-95
2022/09/23 09:44:18;;;;;;;3.80;0.95;;;;;;;17.29;100.00;101036.38;4940165;29;20074;-94
2022/09/23 09:47:05;;;;;;;3.38;0.98;;;;;;;17.10;100.00;101018.13;4920031;29;20051;-89
2022/09/23 09:49:57;;;;;;;4.60;1.00;;;;;;;17.53;100.00;101051.69;4941492;29;20051;-88
2022/09/23 09:52:28;;;;;;;5.15;0.90;;;;;;;16.98;100.00;100982.69;4951748;29;20112;-89
2022/09/23 09:55:16;;;;;;;2.83;0.90;;;;;;;17.47;100.00;101052.91;4942430;29;20541;-89
2022/09/23 09:58:04;;;;;;;3.03;1.15;;;;;;;17.60;100.00;101053.00;4950170;29;20063;-90
2022/09/23 10:00:41;;;;;;;5.25;1.08;;;;;;;17.43;100.00;101028.44;4966647;29;20495;-89
2022/09/23 10:03:11;;;;;;;2.42;0.90;;;;;;;17.75;100.00;101044.09;4954127;29;20143;-89
2022/09/23 10:05:44;;;;;;;2.50;0.77;;;;;;;17.83;100.00;101046.28;4952846;29;20107;-89
2022/09/23 10:08:25;;;;;;;5.13;1.02;;;;;;;17.69;100.00;101014.50;4953248;29;20056;-89
2022/09/23 10:10:57;;;;;;;3.78;0.90;;;;;;;18.14;100.00;101044.34;4953472;29;20052;-89
2022/09/23 10:13:26;;;;;;;2.08;0.82;;;;;;;17.94;100.00;101029.75;4953629;29;20058;-89
2022/09/23 10:15:54;;;;;;;2.63;1.08;;;;;;;17.61;100.00;100984.06;4940024;29;20052;-90
2022/09/23 10:18:48;;;;;;;4.93;1.00;;;;;;;17.70;100.00;101013.56;4934072;29;20055;-94
2022/09/23 10:21:35;;;;;;;4.72;1.02;;;;;;;17.67;100.00;101004.03;4959381;29;20091;-90
2022/09/23 10:24:22;;;;;;;3.28;0.90;;;;;;;18.13;100.00;101040.00;4945817;29;20110;-95
2022/09/23 10:27:10;;;;;;;2.50;0.88;;;;;;;18.07;100.00;101038.59;4961280;29;20077;-95
2022/09/23 10:29:55;;;;;;;4.10;0.88;;;;;;;17.91;100.00;101016.69;4960357;29;20047;-96
2022/09/23 10:32:47;;;;;;;1.92;0.88;;;;;;;18.05;100.00;101044.97;4961643;28;20052;-94
2022/09/23 10:35:33;;;;;;;3.83;0.93;;;;;;;18.23;100.00;101027.00;4948121;29;20031;-94
2022/09/23 10:38:16;;;;;;;6.35;1.30;;;;;;;18.63;100.00;101033.19;4962318;28;20058;-95
2022/09/23 10:47:15;;;;;;;2.60;0.90;;;;;;;18.92;100.00;101022.44;4959006;29;20062;-94
2022/09/23 10:50:12;;;;;;;2.05;0.98;;;;;;;19.24;93.91;101030.81;4958795;29;20126;-92
2022/09/23 10:53:03;;;;;;;3.25;0.85;;;;;;;19.58;96.90;101035.59;4969855;29;20107;-94
2022/09/23 10:56:10;;;;;;;2.65;0.90;;;;;;;19.18;86.15;101019.81;4974299;29;20049;-96
2022/09/23 10:59:00;;;;;;;2.65;0.80;;;;;;;19.10;85.73;101031.78;4947605;28;20142;-95
2022/09/23 11:01:49;;;;;;;4.55;1.00;;;;;;;18.40;91.40;100971.94;4973880;28;20044;-96
2022/09/23 11:05:15;;;;;;;4.13;0.95;;;;;;;18.80;93.84;101010.81;4974302;28;20035;-95
2022/09/23 11:08:20;;;;;;;3.90;0.80;;;;;;;18.41;100.00;100954.22;4973550;29;20138;-96
2022/09/23 11:11:10;;;;;;;2.75;0.80;;;;;;;18.90;95.52;101030.50;4970929;29;20048;-95
2022/09/23 11:14:14;;;;;;;3.03;0.80;;;;;;;18.89;91.60;100957.19;4971221;29;20039;-95
2022/09/23 11:17:16;;;;;;;3.22;1.05;;;;;;;19.00;93.55;101037.81;4956421;29;20044;-96
2022/09/23 11:20:08;;;;;;;2.70;0.70;;;;;;;18.85;89.08;101039.72;4971260;29;20035;-95
2022/09/23 11:23:09;;;;;;;2.30;0.73;;;;;;;18.09;86.55;100982.84;4971062;29;20048;-96
2022/09/23 11:25:50;;;;;;;2.05;0.60;;;;;;;18.55;85.65;101033.69;4957884;29;20062;-96
2022/09/23 11:28:37;;;;;;;1.38;0.70;;;;;;;19.14;91.32;101035.06;4970126;29;20110;-95
2022/09/23 11:31:36;;;;;;;1.35;0.60;;;;;;;19.21;87.36;101027.53;4970749;29;20116;-96
2022/09/23 11:34:47;;;;;;;4.55;0.90;;;;;;;18.16;85.55;100928.50;4970439;29;20032;-96
2022/09/23 11:37:37;;;;;;;4.32;1.02;;;;;;;17.68;77.10;100921.00;4969802;29;20156;-95
2022/09/23 11:40:28;;;;;;;3.65;0.93;;;;;;;17.75;75.62;100898.47;4943084;29;20022;-96
2022/09/23 11:43:22;;;;;;;1.15;0.65;;;;;;;18.28;78.41;100966.59;4956971;28;20074;-94
2022/09/23 11:46:12;;;;;;;2.90;0.98;;;;;;;18.31;79.61;101017.63;4956344;29;20046;-95
2022/09/23 11:49:06;;;;;;;3.08;0.70;;;;;;;18.19;82.80;100915.91;4956678;29;20044;-96
2022/09/23 11:52:02;;;;;;;1.95;0.73;;;;;;;18.85;73.91;101031.78;4959246;29;20048;-96
2022/09/23 11:54:52;;;;;;;1.33;0.60;;;;;;;18.21;74.94;100952.91;4958402;29;20031;-95
2022/09/23 11:57:59;;;;;;;1.77;0.60;;;;;;;18.28;72.43;100889.75;4970670;29;20045;-96
2022/09/23 12:00:49;;;;;;;2.30;0.50;;;;;;;18.85;69.26;100936.28;4958727;29;20028;-96
2022/09/23 12:03:39;;;;;;;1.05;0.70;;;;;;;19.18;68.14;100985.31;4959613;29;20039;-96
2022/09/23 12:06:51;;;;;;;2.83;0.75;;;;;;;19.25;65.90;100973.31;4959950;29;20035;-96
2022/09/23 12:10:10;;;;;;;2.17;0.70;;;;;;;18.76;67.00;100921.81;4959794;29;20036;-96
2022/09/23 12:13:03;;;;;;;1.05;0.60;;;;;;;19.20;67.42;101015.25;4925057;29;20052;-96
2022/09/23 12:16:12;;;;;;;1.50;0.63;;;;;;;18.92;68.00;100901.25;4959263;28;20024;-96